sensor_id;sensor_type;location;lat;lon;timestamp;P1;P2;P0
72854;PMS7003;60991;51.278;22.550;2023-05-09T00:01:05;51.00;41.67;26.00
72854;PMS7003;60991;51.278;22.550;2023-05-09T00:02:37;52.50;39.75;25.75
72854;PMS7003;60991;51.278;22.550;2023-05-09T00:04:08;50.50;40.75;27.25
72854;PMS7003;60991;51.278;22.550;2023-05-09T00:05:38;46.33;36.00;25.33
72854;PMS7003;60991;51.278;22.550;2023-05-09T00:07:08;49.25;41.25;26.00
72854;PMS7003;60991;51.278;22.550;2023-05-09T00:08:38;50.00;39.67;26.00
72854;PMS7003;60991;51.278;22.550;2023-05-09T00:10:09;42.00;38.33;26.00
72854;PMS7003;60991;51.278;22.550;2023-05-09T00:11:39;46.50;38.00;26.75
72854;PMS7003;60991;51.278;22.550;2023-05-09T00:13:09;49.67;39.33;24.00
72854;PMS7003;60991;51.278;22.550;2023-05-09T00:14:39;48.67;38.33;24.67
72854;PMS7003;60991;51.278;22.550;2023-05-09T00:16:10;47.67;35.67;23.00
72854;PMS7003;60991;51.278;22.550;2023-05-09T00:17:40;37.75;35.00;20.50
72854;PMS7003;60991;51.278;22.550;2023-05-09T00:19:10;48.00;38.75;26.25
72854;PMS7003;60991;51.278;22.550;2023-05-09T00:20:40;39.33;35.00;22.33
72854;PMS7003;60991;51.278;22.550;2023-05-09T00:22:10;39.33;34.00;19.67
72854;PMS7003;60991;51.278;22.550;2023-05-09T00:23:41;32.33;29.00;21.33
72854;PMS7003;60991;51.278;22.550;2023-05-09T00:25:11;46.00;37.00;24.75
72854;PMS7003;60991;51.278;22.550;2023-05-09T00:26:41;43.00;35.67;24.00
72854;PMS7003;60991;51.278;22.550;2023-05-09T00:28:12;37.00;36.25;24.25
72854;PMS7003;60991;51.278;22.550;2023-05-09T00:29:42;39.33;36.00;24.00
72854;PMS7003;60991;51.278;22.550;2023-05-09T00:31:12;33.75;33.00;20.25
72854;PMS7003;60991;51.278;22.550;2023-05-09T00:32:42;34.50;30.75;20.75
72854;PMS7003;60991;51.278;22.550;2023-05-09T00:34:13;41.33;36.00;25.00
72854;PMS7003;60991;51.278;22.550;2023-05-09T00:35:43;40.33;35.33;21.00
72854;PMS7003;60991;51.278;22.550;2023-05-09T00:37:13;43.00;37.67;25.00
72854;PMS7003;60991;51.278;22.550;2023-05-09T00:38:43;45.67;37.33;24.00
72854;PMS7003;60991;51.278;22.550;2023-05-09T00:40:13;42.67;37.67;24.00
72854;PMS7003;60991;51.278;22.550;2023-05-09T00:41:44;47.50;38.25;25.00
72854;PMS7003;60991;51.278;22.550;2023-05-09T00:43:14;37.50;36.00;24.00
72854;PMS7003;60991;51.278;22.550;2023-05-09T00:44:44;45.75;38.75;25.00
72854;PMS7003;60991;51.278;22.550;2023-05-09T00:46:14;48.33;39.33;25.67
72854;PMS7003;60991;51.278;22.550;2023-05-09T00:47:45;49.50;39.50;26.25
72854;PMS7003;60991;51.278;22.550;2023-05-09T00:49:15;47.25;39.75;26.50
72854;PMS7003;60991;51.278;22.550;2023-05-09T00:50:45;42.33;36.33;23.00
72854;PMS7003;60991;51.278;22.550;2023-05-09T00:52:16;46.50;40.75;26.25
72854;PMS7003;60991;51.278;22.550;2023-05-09T00:53:46;47.75;40.75;26.75
72854;PMS7003;60991;51.278;22.550;2023-05-09T00:55:17;48.25;39.00;24.50
72854;PMS7003;60991;51.278;22.550;2023-05-09T00:56:47;48.75;39.00;26.25
72854;PMS7003;60991;51.278;22.550;2023-05-09T00:58:19;50.75;42.25;25.00
72854;PMS7003;60991;51.278;22.550;2023-05-09T00:59:50;46.25;40.25;25.00
72854;PMS7003;60991;51.278;22.550;2023-05-09T01:01:20;55.25;41.75;27.25
72854;PMS7003;60991;51.278;22.550;2023-05-09T01:02:52;51.33;40.67;27.00
72854;PMS7003;60991;51.278;22.550;2023-05-09T01:04:24;46.00;40.25;27.50
72854;PMS7003;60991;51.278;22.550;2023-05-09T01:05:55;55.25;43.00;26.75
72854;PMS7003;60991;51.278;22.550;2023-05-09T01:07:37;46.75;39.75;28.00
72854;PMS7003;60991;51.278;22.550;2023-05-09T01:09:18;53.75;43.50;28.00
72854;PMS7003;60991;51.278;22.550;2023-05-09T01:13:03;54.25;43.00;27.50
72854;PMS7003;60991;51.278;22.550;2023-05-09T01:15:08;57.75;45.00;29.00
72854;PMS7003;60991;51.278;22.550;2023-05-09T01:16:44;58.75;46.50;29.00
72854;PMS7003;60991;51.278;22.550;2023-05-09T01:20:28;57.50;47.00;29.00
72854;PMS7003;60991;51.278;22.550;2023-05-09T01:22:03;55.75;43.50;26.50
72854;PMS7003;60991;51.278;22.550;2023-05-09T01:23:43;58.50;46.00;31.00
72854;PMS7003;60991;51.278;22.550;2023-05-09T01:27:47;56.00;45.00;27.00
72854;PMS7003;60991;51.278;22.550;2023-05-09T01:29:42;64.50;48.00;29.00
72854;PMS7003;60991;51.278;22.550;2023-05-09T01:31:15;55.00;44.00;27.00
72854;PMS7003;60991;51.278;22.550;2023-05-09T01:32:46;56.75;43.25;27.50
72854;PMS7003;60991;51.278;22.550;2023-05-09T01:34:20;55.75;44.50;28.00
72854;PMS7003;60991;51.278;22.550;2023-05-09T01:35:53;55.00;42.75;27.75
72854;PMS7003;60991;51.278;22.550;2023-05-09T01:37:31;54.50;42.25;26.25
72854;PMS7003;60991;51.278;22.550;2023-05-09T01:39:03;53.75;42.50;26.50
72854;PMS7003;60991;51.278;22.550;2023-05-09T01:40:35;50.00;41.00;28.50
72854;PMS7003;60991;51.278;22.550;2023-05-09T01:42:07;52.75;41.75;25.75
72854;PMS7003;60991;51.278;22.550;2023-05-09T01:43:40;55.75;43.00;28.00
72854;PMS7003;60991;51.278;22.550;2023-05-09T01:45:14;41.75;39.00;27.75
72854;PMS7003;60991;51.278;22.550;2023-05-09T01:46:46;46.75;39.75;25.75
72854;PMS7003;60991;51.278;22.550;2023-05-09T01:48:16;43.50;39.75;25.50
72854;PMS7003;60991;51.278;22.550;2023-05-09T01:49:47;36.25;34.75;23.00
72854;PMS7003;60991;51.278;22.550;2023-05-09T01:51:18;38.00;34.25;22.00
72854;PMS7003;60991;51.278;22.550;2023-05-09T01:52:51;28.25;26.25;18.75
72854;PMS7003;60991;51.278;22.550;2023-05-09T01:54:24;40.00;33.50;22.50
72854;PMS7003;60991;51.278;22.550;2023-05-09T01:55:56;42.75;38.00;24.00
72854;PMS7003;60991;51.278;22.550;2023-05-09T01:57:28;33.75;31.75;21.00
72854;PMS7003;60991;51.278;22.550;2023-05-09T01:58:59;37.00;31.75;20.75
72854;PMS7003;60991;51.278;22.550;2023-05-09T02:00:32;30.50;27.00;20.25
72854;PMS7003;60991;51.278;22.550;2023-05-09T02:02:03;36.25;34.25;21.00
72854;PMS7003;60991;51.278;22.550;2023-05-09T02:03:34;28.00;28.00;19.50
72854;PMS7003;60991;51.278;22.550;2023-05-09T02:05:07;32.00;30.25;20.00
72854;PMS7003;60991;51.278;22.550;2023-05-09T02:06:39;29.75;27.75;18.00
72854;PMS7003;60991;51.278;22.550;2023-05-09T02:08:12;31.50;26.00;17.25
72854;PMS7003;60991;51.278;22.550;2023-05-09T02:09:44;31.00;28.50;19.00
72854;PMS7003;60991;51.278;22.550;2023-05-09T02:11:15;29.75;27.25;18.00
72854;PMS7003;60991;51.278;22.550;2023-05-09T02:12:45;28.50;25.25;19.25
72854;PMS7003;60991;51.278;22.550;2023-05-09T02:14:15;36.75;26.00;18.00
72854;PMS7003;60991;51.278;22.550;2023-05-09T02:15:46;32.75;28.75;19.00
72854;PMS7003;60991;51.278;22.550;2023-05-09T02:17:16;25.00;23.50;16.75
72854;PMS7003;60991;51.278;22.550;2023-05-09T02:18:47;34.00;29.00;19.50
72854;PMS7003;60991;51.278;22.550;2023-05-09T02:20:17;48.33;35.00;22.00
72854;PMS7003;60991;51.278;22.550;2023-05-09T02:21:47;28.33;25.67;19.00
72854;PMS7003;60991;51.278;22.550;2023-05-09T02:23:18;34.50;30.25;19.75
72854;PMS7003;60991;51.278;22.550;2023-05-09T02:24:49;31.00;29.50;18.25
72854;PMS7003;60991;51.278;22.550;2023-05-09T02:26:19;35.50;30.25;18.50
72854;PMS7003;60991;51.278;22.550;2023-05-09T02:27:49;31.50;27.75;19.00
72854;PMS7003;60991;51.278;22.550;2023-05-09T02:29:23;34.75;30.00;18.00
72854;PMS7003;60991;51.278;22.550;2023-05-09T02:31:00;29.75;25.00;18.75
72854;PMS7003;60991;51.278;22.550;2023-05-09T02:32:34;33.25;26.50;19.50
72854;PMS7003;60991;51.278;22.550;2023-05-09T02:34:08;30.00;23.75;16.50
72854;PMS7003;60991;51.278;22.550;2023-05-09T02:35:40;28.25;23.75;17.00
72854;PMS7003;60991;51.278;22.550;2023-05-09T02:37:13;26.75;24.50;17.50
72854;PMS7003;60991;51.278;22.550;2023-05-09T02:38:43;28.00;24.00;16.25
72854;PMS7003;60991;51.278;22.550;2023-05-09T02:40:14;27.75;25.50;14.75
72854;PMS7003;60991;51.278;22.550;2023-05-09T02:41:48;28.75;25.25;17.00
72854;PMS7003;60991;51.278;22.550;2023-05-09T02:43:18;28.25;25.75;16.25
72854;PMS7003;60991;51.278;22.550;2023-05-09T02:44:48;22.67;22.67;17.67
72854;PMS7003;60991;51.278;22.550;2023-05-09T02:46:19;37.25;32.25;17.50
72854;PMS7003;60991;51.278;22.550;2023-05-09T02:47:49;34.50;30.50;21.25
72854;PMS7003;60991;51.278;22.550;2023-05-09T02:49:19;43.00;34.50;24.00
72854;PMS7003;60991;51.278;22.550;2023-05-09T02:50:49;34.00;29.00;24.00
72854;PMS7003;60991;51.278;22.550;2023-05-09T02:52:20;36.00;32.67;23.00
72854;PMS7003;60991;51.278;22.550;2023-05-09T02:53:50;35.00;32.67;24.00
72854;PMS7003;60991;51.278;22.550;2023-05-09T02:55:20;42.00;36.00;24.00
72854;PMS7003;60991;51.278;22.550;2023-05-09T02:56:50;39.50;31.75;25.00
72854;PMS7003;60991;51.278;22.550;2023-05-09T02:58:21;40.00;32.67;22.33
72854;PMS7003;60991;51.278;22.550;2023-05-09T02:59:51;46.67;38.33;24.00
72854;PMS7003;60991;51.278;22.550;2023-05-09T03:01:21;51.33;40.33;25.33
72854;PMS7003;60991;51.278;22.550;2023-05-09T03:02:51;51.67;40.33;27.00
72854;PMS7003;60991;51.278;22.550;2023-05-09T03:04:21;55.33;43.00;25.00
72854;PMS7003;60991;51.278;22.550;2023-05-09T03:05:52;55.00;42.75;28.25
72854;PMS7003;60991;51.278;22.550;2023-05-09T03:07:22;50.67;40.00;27.67
72854;PMS7003;60991;51.278;22.550;2023-05-09T03:08:52;52.33;40.33;27.00
72854;PMS7003;60991;51.278;22.550;2023-05-09T03:10:22;50.00;39.33;27.00
72854;PMS7003;60991;51.278;22.550;2023-05-09T03:11:53;54.33;45.00;28.67
72854;PMS7003;60991;51.278;22.550;2023-05-09T03:13:24;54.75;41.50;27.75
72854;PMS7003;60991;51.278;22.550;2023-05-09T03:14:54;52.67;41.67;27.33
72854;PMS7003;60991;51.278;22.550;2023-05-09T03:16:24;52.33;41.67;27.00
72854;PMS7003;60991;51.278;22.550;2023-05-09T03:17:54;48.50;41.50;28.00
72854;PMS7003;60991;51.278;22.550;2023-05-09T03:19:25;49.33;40.33;27.00
72854;PMS7003;60991;51.278;22.550;2023-05-09T03:20:55;53.67;44.67;27.00
72854;PMS7003;60991;51.278;22.550;2023-05-09T03:22:25;50.67;40.33;27.33
72854;PMS7003;60991;51.278;22.550;2023-05-09T03:23:55;43.33;35.00;23.33
72854;PMS7003;60991;51.278;22.550;2023-05-09T03:25:25;43.67;38.67;27.00
72854;PMS7003;60991;51.278;22.550;2023-05-09T03:26:56;45.50;38.50;25.50
72854;PMS7003;60991;51.278;22.550;2023-05-09T03:28:26;30.33;27.33;20.00
72854;PMS7003;60991;51.278;22.550;2023-05-09T03:29:57;44.25;38.25;25.75
72854;PMS7003;60991;51.278;22.550;2023-05-09T03:31:27;40.67;33.67;24.00
72854;PMS7003;60991;51.278;22.550;2023-05-09T03:32:57;53.67;43.00;24.33
72854;PMS7003;60991;51.278;22.550;2023-05-09T03:34:27;43.00;35.67;24.00
72854;PMS7003;60991;51.278;22.550;2023-05-09T03:35:57;50.33;39.33;26.00
72854;PMS7003;60991;51.278;22.550;2023-05-09T03:37:28;47.67;38.33;25.33
72854;PMS7003;60991;51.278;22.550;2023-05-09T03:38:58;54.00;38.67;24.00
72854;PMS7003;60991;51.278;22.550;2023-05-09T03:40:28;48.67;38.00;25.00
72854;PMS7003;60991;51.278;22.550;2023-05-09T03:41:58;48.00;39.67;26.33
72854;PMS7003;60991;51.278;22.550;2023-05-09T03:43:28;51.00;40.33;24.67
72854;PMS7003;60991;51.278;22.550;2023-05-09T03:44:59;43.50;38.25;25.50
72854;PMS7003;60991;51.278;22.550;2023-05-09T03:46:29;42.00;37.67;24.00
72854;PMS7003;60991;51.278;22.550;2023-05-09T03:47:59;55.33;43.67;28.00
72854;PMS7003;60991;51.278;22.550;2023-05-09T03:49:29;54.67;44.00;28.33
72854;PMS7003;60991;51.278;22.550;2023-05-09T03:50:59;49.00;40.67;27.33
72854;PMS7003;60991;51.278;22.550;2023-05-09T03:52:30;56.00;42.33;27.67
72854;PMS7003;60991;51.278;22.550;2023-05-09T03:54:00;49.00;40.33;25.33
72854;PMS7003;60991;51.278;22.550;2023-05-09T03:55:30;47.33;39.67;27.00
72854;PMS7003;60991;51.278;22.550;2023-05-09T03:57:00;62.00;43.67;26.33
72854;PMS7003;60991;51.278;22.550;2023-05-09T03:58:31;55.33;42.33;27.67
72854;PMS7003;60991;51.278;22.550;2023-05-09T04:00:01;46.00;39.67;24.67
72854;PMS7003;60991;51.278;22.550;2023-05-09T04:01:32;46.00;39.00;26.75
72854;PMS7003;60991;51.278;22.550;2023-05-09T04:03:03;50.50;40.75;27.00
72854;PMS7003;60991;51.278;22.550;2023-05-09T04:04:33;55.00;43.50;28.00
72854;PMS7003;60991;51.278;22.550;2023-05-09T04:06:03;38.00;36.67;25.33
72854;PMS7003;60991;51.278;22.550;2023-05-09T04:07:34;45.75;39.75;24.50
72854;PMS7003;60991;51.278;22.550;2023-05-09T04:09:04;43.67;37.67;27.00
72854;PMS7003;60991;51.278;22.550;2023-05-09T04:10:35;40.00;36.00;23.00
72854;PMS7003;60991;51.278;22.550;2023-05-09T04:12:05;52.00;41.33;28.00
72854;PMS7003;60991;51.278;22.550;2023-05-09T04:13:35;38.50;36.75;22.25
72854;PMS7003;60991;51.278;22.550;2023-05-09T04:15:06;46.50;38.00;25.25
72854;PMS7003;60991;51.278;22.550;2023-05-09T04:16:37;46.25;39.75;25.75
72854;PMS7003;60991;51.278;22.550;2023-05-09T04:18:07;46.00;37.25;22.75
72854;PMS7003;60991;51.278;22.550;2023-05-09T04:19:37;42.25;38.25;24.25
72854;PMS7003;60991;51.278;22.550;2023-05-09T04:21:08;42.75;34.50;22.75
72854;PMS7003;60991;51.278;22.550;2023-05-09T04:22:38;55.75;41.50;24.00
72854;PMS7003;60991;51.278;22.550;2023-05-09T04:24:08;54.00;39.67;24.00
72854;PMS7003;60991;51.278;22.550;2023-05-09T04:25:38;43.00;37.25;23.75
72854;PMS7003;60991;51.278;22.550;2023-05-09T04:27:09;34.00;31.00;24.00
72854;PMS7003;60991;51.278;22.550;2023-05-09T04:28:39;45.67;36.00;22.67
72854;PMS7003;60991;51.278;22.550;2023-05-09T04:30:10;36.50;31.00;22.00
72854;PMS7003;60991;51.278;22.550;2023-05-09T04:31:40;23.75;19.50;10.50
72854;PMS7003;60991;51.278;22.550;2023-05-09T04:33:10;35.00;31.00;20.33
72854;PMS7003;60991;51.278;22.550;2023-05-09T04:34:40;31.00;26.50;19.50
72854;PMS7003;60991;51.278;22.550;2023-05-09T04:36:11;29.67;29.67;19.67
72854;PMS7003;60991;51.278;22.550;2023-05-09T04:37:41;26.67;24.33;18.33
72854;PMS7003;60991;51.278;22.550;2023-05-09T04:39:11;33.67;28.33;18.67
72854;PMS7003;60991;51.278;22.550;2023-05-09T04:40:41;32.00;27.00;17.00
72854;PMS7003;60991;51.278;22.550;2023-05-09T04:42:11;25.00;24.33;17.67
72854;PMS7003;60991;51.278;22.550;2023-05-09T04:43:42;29.67;25.33;13.00
72854;PMS7003;60991;51.278;22.550;2023-05-09T04:45:12;26.00;24.00;16.00
72854;PMS7003;60991;51.278;22.550;2023-05-09T04:46:42;19.00;18.33;13.00
72854;PMS7003;60991;51.278;22.550;2023-05-09T04:48:12;22.75;21.00;15.00
72854;PMS7003;60991;51.278;22.550;2023-05-09T04:49:43;20.33;19.67;14.00
72854;PMS7003;60991;51.278;22.550;2023-05-09T04:51:13;21.33;18.00;14.00
72854;PMS7003;60991;51.278;22.550;2023-05-09T04:52:43;18.00;17.67;12.33
72854;PMS7003;60991;51.278;22.550;2023-05-09T04:54:13;24.67;20.00;14.00
72854;PMS7003;60991;51.278;22.550;2023-05-09T04:55:43;21.25;21.00;14.75
72854;PMS7003;60991;51.278;22.550;2023-05-09T04:57:14;20.00;19.67;14.00
72854;PMS7003;60991;51.278;22.550;2023-05-09T04:58:44;23.33;20.33;13.33
72854;PMS7003;60991;51.278;22.550;2023-05-09T05:00:14;18.33;18.33;12.00
72854;PMS7003;60991;51.278;22.550;2023-05-09T05:01:44;25.75;22.50;16.25
72854;PMS7003;60991;51.278;22.550;2023-05-09T05:03:15;20.00;15.50;10.00
72854;PMS7003;60991;51.278;22.550;2023-05-09T05:04:45;21.67;20.33;14.00
72854;PMS7003;60991;51.278;22.550;2023-05-09T05:06:15;25.75;23.50;16.25
72854;PMS7003;60991;51.278;22.550;2023-05-09T05:07:45;23.50;19.50;13.50
72854;PMS7003;60991;51.278;22.550;2023-05-09T05:09:16;37.50;25.00;16.25
72854;PMS7003;60991;51.278;22.550;2023-05-09T05:10:46;23.75;21.00;14.25
72854;PMS7003;60991;51.278;22.550;2023-05-09T05:12:16;22.25;20.50;14.50
72854;PMS7003;60991;51.278;22.550;2023-05-09T05:13:47;31.50;23.75;16.75
72854;PMS7003;60991;51.278;22.550;2023-05-09T05:15:17;17.67;15.67;11.67
72854;PMS7003;60991;51.278;22.550;2023-05-09T05:16:47;24.00;20.50;15.50
72854;PMS7003;60991;51.278;22.550;2023-05-09T05:18:17;27.33;21.67;16.33
72854;PMS7003;60991;51.278;22.550;2023-05-09T05:19:48;24.25;18.75;14.00
72854;PMS7003;60991;51.278;22.550;2023-05-09T05:21:18;26.33;23.67;14.67
72854;PMS7003;60991;51.278;22.550;2023-05-09T05:22:48;23.25;20.50;13.75
72854;PMS7003;60991;51.278;22.550;2023-05-09T05:24:18;18.75;18.00;13.00
72854;PMS7003;60991;51.278;22.550;2023-05-09T05:25:49;21.50;21.25;17.50
72854;PMS7003;60991;51.278;22.550;2023-05-09T05:27:19;25.00;22.25;14.50
72854;PMS7003;60991;51.278;22.550;2023-05-09T05:28:49;14.50;11.25;3.50
72854;PMS7003;60991;51.278;22.550;2023-05-09T05:30:19;24.75;21.50;14.50
72854;PMS7003;60991;51.278;22.550;2023-05-09T05:31:50;18.50;18.25;14.25
72854;PMS7003;60991;51.278;22.550;2023-05-09T05:33:23;19.67;19.33;12.00
72854;PMS7003;60991;51.278;22.550;2023-05-09T05:34:53;25.75;20.75;16.00
72854;PMS7003;60991;51.278;22.550;2023-05-09T05:36:23;17.67;17.67;12.33
72854;PMS7003;60991;51.278;22.550;2023-05-09T05:37:54;27.00;25.00;16.67
72854;PMS7003;60991;51.278;22.550;2023-05-09T05:39:24;24.75;23.25;15.75
72854;PMS7003;60991;51.278;22.550;2023-05-09T05:40:54;29.00;25.33;15.67
72854;PMS7003;60991;51.278;22.550;2023-05-09T05:42:25;28.00;24.50;15.00
72854;PMS7003;60991;51.278;22.550;2023-05-09T05:43:55;23.67;22.00;14.67
72854;PMS7003;60991;51.278;22.550;2023-05-09T05:45:26;26.33;20.67;16.00
72854;PMS7003;60991;51.278;22.550;2023-05-09T05:46:56;25.50;23.50;16.50
72854;PMS7003;60991;51.278;22.550;2023-05-09T05:48:27;27.00;17.67;14.00
72854;PMS7003;60991;51.278;22.550;2023-05-09T05:49:57;25.67;20.33;15.00
72854;PMS7003;60991;51.278;22.550;2023-05-09T05:51:28;27.50;22.75;15.75
72854;PMS7003;60991;51.278;22.550;2023-05-09T05:52:58;24.33;20.33;16.00
72854;PMS7003;60991;51.278;22.550;2023-05-09T05:54:28;23.00;21.25;14.00
72854;PMS7003;60991;51.278;22.550;2023-05-09T05:55:58;23.75;19.00;13.00
72854;PMS7003;60991;51.278;22.550;2023-05-09T05:57:29;25.00;22.50;15.75
72854;PMS7003;60991;51.278;22.550;2023-05-09T05:58:59;29.50;24.25;15.50
72854;PMS7003;60991;51.278;22.550;2023-05-09T06:00:29;27.00;21.00;16.00
72854;PMS7003;60991;51.278;22.550;2023-05-09T06:01:59;23.50;20.75;15.50
72854;PMS7003;60991;51.278;22.550;2023-05-09T06:03:30;29.00;22.00;15.00
72854;PMS7003;60991;51.278;22.550;2023-05-09T06:05:00;21.33;17.00;12.67
72854;PMS7003;60991;51.278;22.550;2023-05-09T06:06:30;15.00;14.50;10.00
72854;PMS7003;60991;51.278;22.550;2023-05-09T06:08:00;14.50;13.50;9.00
72854;PMS7003;60991;51.278;22.550;2023-05-09T06:09:30;14.50;14.50;10.25
72854;PMS7003;60991;51.278;22.550;2023-05-09T06:11:01;17.25;12.00;10.00
72854;PMS7003;60991;51.278;22.550;2023-05-09T06:12:31;10.33;8.33;7.00
72854;PMS7003;60991;51.278;22.550;2023-05-09T06:14:01;14.25;10.75;8.75
72854;PMS7003;60991;51.278;22.550;2023-05-09T06:15:31;15.67;11.00;8.00
72854;PMS7003;60991;51.278;22.550;2023-05-09T06:17:01;15.25;13.25;8.00
72854;PMS7003;60991;51.278;22.550;2023-05-09T06:18:32;11.50;11.50;10.00
72854;PMS7003;60991;51.278;22.550;2023-05-09T06:20:03;9.50;8.75;7.00
72854;PMS7003;60991;51.278;22.550;2023-05-09T06:21:34;17.50;13.75;10.00
72854;PMS7003;60991;51.278;22.550;2023-05-09T06:23:04;14.25;12.50;9.50
72854;PMS7003;60991;51.278;22.550;2023-05-09T06:24:35;9.67;8.33;6.33
72854;PMS7003;60991;51.278;22.550;2023-05-09T06:26:05;11.67;10.00;7.33
72854;PMS7003;60991;51.278;22.550;2023-05-09T06:27:35;14.75;11.00;9.25
72854;PMS7003;60991;51.278;22.550;2023-05-09T06:29:05;15.25;11.75;10.25
72854;PMS7003;60991;51.278;22.550;2023-05-09T06:30:36;16.75;10.75;8.00
72854;PMS7003;60991;51.278;22.550;2023-05-09T06:32:06;14.50;11.75;8.50
72854;PMS7003;60991;51.278;22.550;2023-05-09T06:33:36;13.00;11.25;8.00
72854;PMS7003;60991;51.278;22.550;2023-05-09T06:35:06;13.33;9.67;7.00
72854;PMS7003;60991;51.278;22.550;2023-05-09T06:36:37;13.75;11.25;8.00
72854;PMS7003;60991;51.278;22.550;2023-05-09T06:38:07;9.75;9.75;7.50
72854;PMS7003;60991;51.278;22.550;2023-05-09T06:39:37;8.67;6.33;5.67
72854;PMS7003;60991;51.278;22.550;2023-05-09T06:41:07;9.33;9.00;7.00
72854;PMS7003;60991;51.278;22.550;2023-05-09T06:42:37;6.33;6.33;5.00
72854;PMS7003;60991;51.278;22.550;2023-05-09T06:44:08;11.00;9.00;6.33
72854;PMS7003;60991;51.278;22.550;2023-05-09T06:45:38;11.00;9.00;6.25
72854;PMS7003;60991;51.278;22.550;2023-05-09T06:47:08;5.00;5.00;3.50
72854;PMS7003;60991;51.278;22.550;2023-05-09T06:48:39;9.75;8.00;6.00
72854;PMS7003;60991;51.278;22.550;2023-05-09T06:50:09;8.25;8.00;6.00
72854;PMS7003;60991;51.278;22.550;2023-05-09T06:51:39;10.75;10.00;6.50
72854;PMS7003;60991;51.278;22.550;2023-05-09T06:53:10;8.75;8.00;5.75
72854;PMS7003;60991;51.278;22.550;2023-05-09T06:54:40;16.50;8.75;5.00
72854;PMS7003;60991;51.278;22.550;2023-05-09T06:56:11;6.00;5.25;4.50
72854;PMS7003;60991;51.278;22.550;2023-05-09T06:57:41;8.50;8.50;6.50
72854;PMS7003;60991;51.278;22.550;2023-05-09T06:59:11;9.25;8.00;6.75
72854;PMS7003;60991;51.278;22.550;2023-05-09T07:00:41;8.50;4.00;3.25
72854;PMS7003;60991;51.278;22.550;2023-05-09T07:02:12;8.50;6.00;5.00
72854;PMS7003;60991;51.278;22.550;2023-05-09T07:03:42;9.33;6.67;5.67
72854;PMS7003;60991;51.278;22.550;2023-05-09T07:05:13;10.75;10.00;8.25
72854;PMS7003;60991;51.278;22.550;2023-05-09T07:06:43;10.00;8.75;6.00
72854;PMS7003;60991;51.278;22.550;2023-05-09T07:08:13;12.00;9.00;6.00
72854;PMS7003;60991;51.278;22.550;2023-05-09T07:09:43;9.75;8.50;6.00
72854;PMS7003;60991;51.278;22.550;2023-05-09T07:11:13;8.50;8.50;6.50
72854;PMS7003;60991;51.278;22.550;2023-05-09T07:12:44;11.25;8.50;6.00
72854;PMS7003;60991;51.278;22.550;2023-05-09T07:14:14;10.25;5.75;5.00
72854;PMS7003;60991;51.278;22.550;2023-05-09T07:15:44;10.67;8.00;6.00
72854;PMS7003;60991;51.278;22.550;2023-05-09T07:17:14;9.00;7.00;5.00
72854;PMS7003;60991;51.278;22.550;2023-05-09T07:18:44;6.75;6.75;5.75
72854;PMS7003;60991;51.278;22.550;2023-05-09T07:20:15;6.00;6.00;5.67
72854;PMS7003;60991;51.278;22.550;2023-05-09T07:21:45;9.50;8.50;5.75
72854;PMS7003;60991;51.278;22.550;2023-05-09T07:23:15;10.50;10.25;6.00
72854;PMS7003;60991;51.278;22.550;2023-05-09T07:24:45;8.50;5.25;4.00
72854;PMS7003;60991;51.278;22.550;2023-05-09T07:26:16;10.50;6.00;5.00
72854;PMS7003;60991;51.278;22.550;2023-05-09T07:27:46;6.75;6.25;4.75
72854;PMS7003;60991;51.278;22.550;2023-05-09T07:29:16;10.00;6.00;4.00
72854;PMS7003;60991;51.278;22.550;2023-05-09T07:30:47;6.25;6.25;5.75
72854;PMS7003;60991;51.278;22.550;2023-05-09T07:32:17;4.67;4.67;3.67
72854;PMS7003;60991;51.278;22.550;2023-05-09T07:33:48;8.00;6.00;5.00
72854;PMS7003;60991;51.278;22.550;2023-05-09T07:35:18;6.00;6.00;6.00
72854;PMS7003;60991;51.278;22.550;2023-05-09T07:36:48;11.75;9.00;5.00
72854;PMS7003;60991;51.278;22.550;2023-05-09T07:38:19;6.00;6.00;4.25
72854;PMS7003;60991;51.278;22.550;2023-05-09T07:39:49;10.25;5.00;4.00
72854;PMS7003;60991;51.278;22.550;2023-05-09T07:41:19;6.00;4.50;4.50
72854;PMS7003;60991;51.278;22.550;2023-05-09T07:42:49;6.00;4.75;4.00
72854;PMS7003;60991;51.278;22.550;2023-05-09T07:44:20;6.50;6.50;4.00
72854;PMS7003;60991;51.278;22.550;2023-05-09T07:45:50;5.00;4.25;4.00
72854;PMS7003;60991;51.278;22.550;2023-05-09T07:47:20;6.50;6.00;3.50
72854;PMS7003;60991;51.278;22.550;2023-05-09T07:48:50;5.00;5.00;4.00
72854;PMS7003;60991;51.278;22.550;2023-05-09T07:50:20;5.50;5.50;4.50
72854;PMS7003;60991;51.278;22.550;2023-05-09T07:51:51;4.00;4.00;3.25
72854;PMS7003;60991;51.278;22.550;2023-05-09T07:53:21;6.00;4.50;3.75
72854;PMS7003;60991;51.278;22.550;2023-05-09T07:54:51;7.50;4.00;4.00
72854;PMS7003;60991;51.278;22.550;2023-05-09T07:56:21;3.00;2.75;2.00
72854;PMS7003;60991;51.278;22.550;2023-05-09T07:57:52;3.50;3.50;3.00
72854;PMS7003;60991;51.278;22.550;2023-05-09T07:59:22;3.25;2.00;1.50
72854;PMS7003;60991;51.278;22.550;2023-05-09T08:00:54;3.75;3.75;3.00
72854;PMS7003;60991;51.278;22.550;2023-05-09T08:02:25;3.75;3.00;2.75
72854;PMS7003;60991;51.278;22.550;2023-05-09T08:03:55;1.00;1.00;1.00
72854;PMS7003;60991;51.278;22.550;2023-05-09T08:05:25;6.50;5.50;4.00
72854;PMS7003;60991;51.278;22.550;2023-05-09T08:06:56;3.50;2.00;2.00
72854;PMS7003;60991;51.278;22.550;2023-05-09T08:08:26;4.75;4.00;3.00
72854;PMS7003;60991;51.278;22.550;2023-05-09T08:09:56;3.00;3.00;2.00
72854;PMS7003;60991;51.278;22.550;2023-05-09T08:11:26;3.25;3.25;2.75
72854;PMS7003;60991;51.278;22.550;2023-05-09T08:12:57;3.25;2.25;1.25
72854;PMS7003;60991;51.278;22.550;2023-05-09T08:14:27;5.00;5.00;2.75
72854;PMS7003;60991;51.278;22.550;2023-05-09T08:15:57;4.50;4.00;4.00
72854;PMS7003;60991;51.278;22.550;2023-05-09T08:17:27;2.25;2.25;2.25
72854;PMS7003;60991;51.278;22.550;2023-05-09T08:18:58;3.75;3.75;2.75
72854;PMS7003;60991;51.278;22.550;2023-05-09T08:20:28;4.75;2.50;1.75
72854;PMS7003;60991;51.278;22.550;2023-05-09T08:21:58;3.00;2.00;2.00
72854;PMS7003;60991;51.278;22.550;2023-05-09T08:23:28;2.75;2.75;2.50
72854;PMS7003;60991;51.278;22.550;2023-05-09T08:24:58;2.75;2.75;2.00
72854;PMS7003;60991;51.278;22.550;2023-05-09T08:26:29;3.00;2.00;1.75
72854;PMS7003;60991;51.278;22.550;2023-05-09T08:27:59;3.50;3.00;2.25
72854;PMS7003;60991;51.278;22.550;2023-05-09T08:29:29;2.00;2.00;1.00
72854;PMS7003;60991;51.278;22.550;2023-05-09T08:30:59;3.50;3.00;2.00
72854;PMS7003;60991;51.278;22.550;2023-05-09T08:32:29;2.50;2.50;2.00
72854;PMS7003;60991;51.278;22.550;2023-05-09T08:34:00;2.00;2.00;2.00